createdAt,value
2019-02-28T00:01:05.549Z,100835.52
2019-02-28T00:03:34.578Z,100835.53
2019-02-28T00:06:03.497Z,100842.01
2019-02-28T00:08:32.311Z,100837.41
2019-02-28T00:11:02.128Z,100834.93
2019-02-28T00:13:31.970Z,100830.57
2019-02-28T00:16:03.454Z,100833.61
2019-02-28T00:18:31.449Z,100824.27
2019-02-28T00:21:06.075Z,100825.89
2019-02-28T00:23:31.269Z,100815.34
2019-02-28T00:26:00.159Z,100813.42
2019-02-28T00:28:29.120Z,100806.87
2019-02-28T00:30:58.048Z,100806.52
2019-02-28T00:33:26.970Z,100799.86
2019-02-28T00:35:55.960Z,100799.14
2019-02-28T00:38:29.456Z,100803.57
2019-02-28T00:40:55.608Z,100807.25
2019-02-28T00:43:25.150Z,100794.63
2019-02-28T00:45:54.746Z,100798.66
2019-02-28T00:48:23.626Z,100798.38
2019-02-28T00:50:52.473Z,100798.67
2019-02-28T00:53:21.374Z,100796.68
2019-02-28T00:55:50.384Z,100789.60
2019-02-28T00:58:19.429Z,100789.44
2019-02-28T01:00:48.331Z,100781.65
2019-02-28T01:03:17.112Z,100732.09
2019-02-28T01:05:46.116Z,100779.33
2019-02-28T01:08:15.096Z,100777.28
2019-02-28T01:10:44.048Z,100771.05
2019-02-28T01:13:12.972Z,100775.97
2019-02-28T01:15:44.809Z,100771.95
2019-02-28T01:18:12.619Z,100768.05
2019-02-28T01:20:41.649Z,100767.59
2019-02-28T01:23:10.658Z,100764.19
2019-02-28T01:25:40.171Z,100758.81
2019-02-28T01:28:09.897Z,100763.95
2019-02-28T01:30:40.648Z,100760.02
2019-02-28T01:33:09.977Z,100760.05
2019-02-28T01:35:40.785Z,100753.93
2019-02-28T01:38:09.515Z,100755.55
2019-02-28T01:40:38.464Z,100750.03
2019-02-28T01:43:07.368Z,100749.57
2019-02-28T01:45:36.384Z,100751.80
2019-02-28T01:48:05.386Z,100744.91
2019-02-28T01:50:34.329Z,100742.35
2019-02-28T01:53:03.564Z,100735.26
2019-02-28T01:55:32.526Z,100726.95
2019-02-28T01:58:01.444Z,100730.17
2019-02-28T02:00:30.445Z,100724.99
2019-02-28T02:02:59.399Z,100717.56
2019-02-28T02:05:28.385Z,100717.69
2019-02-28T02:07:57.191Z,100713.58
2019-02-28T02:10:26.123Z,100708.84
2019-02-28T02:12:55.138Z,100699.02
2019-02-28T02:15:23.921Z,100699.52
2019-02-28T02:17:52.715Z,100696.34
2019-02-28T02:20:23.460Z,100699.90
2019-02-28T02:22:52.592Z,100685.29
2019-02-28T02:25:21.583Z,100689.31
2019-02-28T02:27:53.422Z,100694.06
2019-02-28T02:30:22.326Z,100677.23
2019-02-28T02:32:51.209Z,100683.83
2019-02-28T02:35:20.263Z,100678.05
2019-02-28T02:37:49.211Z,100678.00
2019-02-28T02:40:18.166Z,100681.53
2019-02-28T02:42:48.824Z,100666.43
2019-02-28T02:45:17.614Z,100673.41
2019-02-28T02:47:46.532Z,100666.44
2019-02-28T02:50:14.713Z,100662.88
2019-02-28T02:52:43.847Z,100661.21
2019-02-28T02:55:13.402Z,100657.59
2019-02-28T02:57:42.511Z,100660.78
2019-02-28T03:00:15.165Z,100651.09
2019-02-28T03:02:44.172Z,100651.09
2019-02-28T03:05:14.919Z,100643.50
2019-02-28T03:07:44.106Z,100641.02
2019-02-28T03:10:17.329Z,100640.95
2019-02-28T03:12:45.201Z,100632.63
2019-02-28T03:15:15.322Z,100639.39
2019-02-28T03:17:47.309Z,100638.06
2019-02-28T03:20:16.013Z,100631.25
2019-02-28T03:22:44.927Z,100630.58
2019-02-28T03:25:14.289Z,100621.88
2019-02-28T03:27:43.127Z,100615.95
2019-02-28T03:30:26.015Z,100620.33
2019-02-28T03:32:45.248Z,100613.03
2019-02-28T03:35:14.111Z,100613.14
2019-02-28T03:37:42.988Z,100620.20
2019-02-28T03:40:12.295Z,100621.02
2019-02-28T03:42:41.274Z,100617.81
2019-02-28T03:45:10.572Z,100610.71
2019-02-28T03:47:39.527Z,100612.86
2019-02-28T03:50:09.056Z,100620.89
2019-02-28T03:52:42.247Z,100620.95
2019-02-28T03:55:09.245Z,100616.02
2019-02-28T03:57:38.178Z,100617.89
2019-02-28T04:00:13.333Z,100616.16
2019-02-28T04:02:42.360Z,100608.30
2019-02-28T04:05:11.389Z,100616.36
2019-02-28T04:07:40.436Z,100610.91
2019-02-28T04:10:09.925Z,100616.89
2019-02-28T04:12:44.947Z,100617.23
2019-02-28T04:15:11.440Z,100615.81
2019-02-28T04:17:40.300Z,100615.81
2019-02-28T04:20:09.401Z,100622.06
2019-02-28T04:22:38.290Z,100620.03
2019-02-28T04:25:07.588Z,100620.25
2019-02-28T04:27:40.504Z,100613.91
2019-02-28T04:30:08.393Z,100620.86
2019-02-28T04:32:37.494Z,100620.45
2019-02-28T04:35:06.524Z,100617.98
2019-02-28T04:37:35.547Z,100617.44
2019-02-28T04:40:06.454Z,100613.70
2019-02-28T04:42:36.632Z,100613.50
2019-02-28T04:45:07.546Z,100609.06
2019-02-28T04:47:37.293Z,100610.42
2019-02-28T04:50:07.518Z,100609.86
2019-02-28T04:52:36.479Z,100609.73
2019-02-28T04:55:05.703Z,100606.48
2019-02-28T04:57:34.670Z,100604.84
2019-02-28T05:00:05.883Z,100611.51
2019-02-28T05:02:34.431Z,100614.20
2019-02-28T05:05:03.356Z,100606.27
2019-02-28T05:07:32.345Z,100610.57
2019-02-28T05:10:01.312Z,100616.53
2019-02-28T05:12:30.311Z,100619.19
2019-02-28T05:15:02.140Z,100621.45
2019-02-28T05:17:29.753Z,100621.73
2019-02-28T05:19:58.683Z,100613.62
2019-02-28T05:22:27.741Z,100617.96
2019-02-28T05:24:57.561Z,100620.00
2019-02-28T05:27:26.344Z,100616.27
2019-02-28T05:29:55.342Z,100613.71
2019-02-28T05:32:24.291Z,100612.73
2019-02-28T05:34:53.162Z,100618.80
2019-02-28T05:37:22.010Z,100615.72
2019-02-28T05:39:50.858Z,100617.23
2019-02-28T05:42:20.231Z,100605.67
2019-02-28T05:44:50.536Z,100608.03
2019-02-28T05:47:19.493Z,100602.11
2019-02-28T05:49:48.351Z,100612.69
2019-02-28T05:52:17.181Z,100609.98
2019-02-28T05:54:47.191Z,100613.06
2019-02-28T05:57:17.068Z,100615.33
2019-02-28T05:59:45.967Z,100613.67
2019-02-28T06:02:14.800Z,100611.34
2019-02-28T06:04:43.700Z,100618.16
2019-02-28T06:07:12.658Z,100611.62
2019-02-28T06:09:41.543Z,100611.66
2019-02-28T06:12:10.468Z,100611.27
2019-02-28T06:14:39.337Z,100614.81
2019-02-28T06:17:08.145Z,100615.55
2019-02-28T06:19:40.191Z,100616.92
2019-02-28T06:22:07.617Z,100625.19
2019-02-28T06:24:36.521Z,100623.05
2019-02-28T06:27:06.639Z,100626.92
2019-02-28T06:29:36.700Z,100631.32
2019-02-28T06:32:06.400Z,100628.95
2019-02-28T06:34:35.329Z,100620.78
2019-02-28T06:37:04.532Z,100628.05
2019-02-28T06:39:33.385Z,100632.02
2019-02-28T06:42:02.401Z,100625.27
2019-02-28T06:44:31.404Z,100623.04
2019-02-28T06:47:00.275Z,100620.39
2019-02-28T06:49:29.083Z,100638.98
2019-02-28T06:51:58.116Z,100639.47
2019-02-28T06:54:27.114Z,100646.58
2019-02-28T06:56:56.015Z,100651.72
2019-02-28T06:59:24.823Z,100650.59
2019-02-28T07:01:57.469Z,100650.26
2019-02-28T07:04:24.664Z,100658.47
2019-02-28T07:06:53.491Z,100656.58
2019-02-28T07:09:22.355Z,100663.31
2019-02-28T07:11:54.694Z,100661.02
2019-02-28T07:14:22.323Z,100668.29
2019-02-28T07:16:51.303Z,100674.26
2019-02-28T07:19:20.297Z,100671.21
2019-02-28T07:21:49.332Z,100676.00
2019-02-28T07:24:18.388Z,100674.94
2019-02-28T07:26:48.267Z,100666.44
2019-02-28T07:29:17.339Z,100664.17
2019-02-28T07:31:46.245Z,100657.47
2019-02-28T07:34:19.401Z,100656.61
2019-02-28T07:36:45.919Z,100659.62
2019-02-28T07:39:14.837Z,100652.23
2019-02-28T07:41:43.766Z,100653.11
2019-02-28T07:44:12.814Z,100654.63
2019-02-28T07:46:43.203Z,100657.00
2019-02-28T07:49:12.467Z,100646.77
2019-02-28T07:51:41.269Z,100648.14
2019-02-28T07:54:12.651Z,100650.87
2019-02-28T07:56:43.306Z,100656.55
2019-02-28T07:59:11.706Z,100662.16
2019-02-28T08:01:40.663Z,100659.90
2019-02-28T08:04:09.640Z,100663.62
2019-02-28T08:06:39.409Z,100661.50
2019-02-28T08:09:21.084Z,100660.83
2019-02-28T08:11:51.636Z,100658.05
2019-02-28T08:14:20.748Z,100654.23
2019-02-28T08:16:49.665Z,100640.48
2019-02-28T08:19:18.586Z,100640.48
2019-02-28T08:21:50.201Z,100645.81
2019-02-28T08:24:18.222Z,100647.80
2019-02-28T08:26:47.178Z,100652.80
2019-02-28T08:29:16.145Z,100643.63
2019-02-28T08:31:45.097Z,100647.45
2019-02-28T08:34:13.892Z,100649.59
2019-02-28T08:36:43.786Z,100656.09
2019-02-28T08:39:16.960Z,100646.73
2019-02-28T08:41:46.002Z,100650.05
2019-02-28T08:44:14.948Z,100652.31
2019-02-28T08:46:46.475Z,100654.95
2019-02-28T08:49:14.577Z,100647.58
2019-02-28T08:51:43.485Z,100651.84
2019-02-28T08:54:12.467Z,100642.70
2019-02-28T08:56:41.714Z,100648.44
2019-02-28T08:59:11.975Z,100640.92
2019-02-28T09:01:44.053Z,100642.92
2019-02-28T09:04:12.284Z,100636.72
2019-02-28T09:06:41.707Z,100636.09
2019-02-28T09:09:12.047Z,100641.41
2019-02-28T09:11:41.079Z,100644.33
2019-02-28T09:14:10.448Z,100638.66
2019-02-28T09:16:39.778Z,100651.88
2019-02-28T09:19:09.377Z,100640.03
2019-02-28T09:21:41.265Z,100639.48
2019-02-28T09:24:12.553Z,100640.57
2019-02-28T09:26:42.214Z,100642.15
2019-02-28T09:29:11.060Z,100643.95
2019-02-28T09:31:40.000Z,100654.25
2019-02-28T09:34:09.348Z,100650.81
2019-02-28T09:36:38.396Z,100649.28
2019-02-28T09:39:08.205Z,100641.94
2019-02-28T09:41:40.343Z,100641.02
2019-02-28T09:44:07.689Z,100642.64
2019-02-28T09:46:36.588Z,100632.36
2019-02-28T09:49:05.800Z,100622.50
2019-02-28T09:51:34.759Z,100619.33
2019-02-28T09:54:03.667Z,100621.47
2019-02-28T09:56:33.161Z,100616.06
2019-02-28T09:59:03.106Z,100621.34
2019-02-28T10:01:32.846Z,100615.63
2019-02-28T10:04:01.855Z,100605.80
2019-02-28T10:06:30.681Z,100608.12
2019-02-28T10:08:59.602Z,100605.23
2019-02-28T10:11:31.729Z,100609.55
2019-02-28T10:13:59.302Z,100602.57
2019-02-28T10:16:28.182Z,100605.80
2019-02-28T10:18:57.384Z,100595.88
2019-02-28T10:21:26.232Z,100599.85
2019-02-28T10:23:56.895Z,100600.56
2019-02-28T10:26:25.935Z,100604.06
2019-02-28T10:28:54.952Z,100598.59
2019-02-28T10:31:34.780Z,100590.03
2019-02-28T10:33:54.456Z,100575.97
2019-02-28T10:36:23.285Z,100567.51
2019-02-28T10:38:52.216Z,100572.45
2019-02-28T10:41:24.142Z,100581.86
2019-02-28T10:43:55.839Z,100579.39
2019-02-28T10:46:24.107Z,100583.70
2019-02-28T10:48:53.020Z,100579.06
2019-02-28T10:51:22.044Z,100572.31
2019-02-28T10:53:52.537Z,100583.28
2019-02-28T10:56:21.661Z,100574.73
2019-02-28T10:58:51.065Z,100569.45
2019-02-28T11:01:20.554Z,100566.55
2019-02-28T11:03:50.788Z,100560.80
2019-02-28T11:06:19.723Z,100553.23
2019-02-28T11:08:48.634Z,100550.30
2019-02-28T11:11:17.653Z,100559.46
2019-02-28T11:13:46.957Z,100570.79
2019-02-28T11:16:16.164Z,100558.08
2019-02-28T11:18:45.019Z,100553.33
2019-02-28T11:21:15.490Z,100557.17
2019-02-28T11:23:46.547Z,100559.80
2019-02-28T11:26:15.320Z,100550.33
2019-02-28T11:28:44.321Z,100546.14
2019-02-28T11:31:13.366Z,100547.12
2019-02-28T11:33:42.381Z,100546.50
2019-02-28T11:36:11.297Z,100543.42
2019-02-28T11:38:40.773Z,100543.53
2019-02-28T11:41:09.814Z,100535.55
2019-02-28T11:43:38.807Z,100529.20
2019-02-28T11:46:09.208Z,100527.28
2019-02-28T11:48:38.166Z,100525.52
2019-02-28T11:51:07.091Z,100520.16
2019-02-28T11:53:39.309Z,100515.30
2019-02-28T11:56:06.712Z,100510.14
2019-02-28T11:58:35.692Z,100505.39
2019-02-28T12:01:10.245Z,100500.78
2019-02-28T12:03:36.601Z,100500.23
2019-02-28T12:06:06.889Z,100502.68
2019-02-28T12:08:36.002Z,100492.98
2019-02-28T12:11:05.223Z,100490.50
2019-02-28T12:13:34.172Z,100491.45
2019-02-28T12:16:03.173Z,100490.52
2019-02-28T12:18:32.132Z,100478.59
2019-02-28T12:21:02.069Z,100472.30
2019-02-28T12:23:31.948Z,100471.95
2019-02-28T12:26:00.959Z,100479.37
2019-02-28T12:28:31.618Z,100464.84
2019-02-28T12:31:02.434Z,100462.55
2019-02-28T12:33:31.265Z,100457.70
2019-02-28T12:36:00.311Z,100454.97
2019-02-28T12:38:29.290Z,100446.89
2019-02-28T12:40:58.318Z,100450.30
2019-02-28T12:43:27.243Z,100450.95
2019-02-28T12:45:56.801Z,100445.52
2019-02-28T12:48:27.309Z,100445.97
2019-02-28T12:50:56.309Z,100442.49
2019-02-28T12:53:25.504Z,100445.68
2019-02-28T12:55:54.529Z,100441.28
2019-02-28T12:58:23.502Z,100437.48
2019-02-28T13:00:56.332Z,100423.16
2019-02-28T13:03:23.222Z,100429.97
2019-02-28T13:05:52.116Z,100419.31
2019-02-28T13:08:20.930Z,100423.95
2019-02-28T13:10:49.889Z,100425.52
2019-02-28T13:13:21.723Z,100417.82
2019-02-28T13:15:49.972Z,100415.18
2019-02-28T13:18:19.022Z,100409.09
2019-02-28T13:20:48.007Z,100401.33
2019-02-28T13:23:17.263Z,100395.27
2019-02-28T13:25:46.420Z,100393.20
2019-02-28T13:28:17.806Z,100401.32
2019-02-28T13:30:50.399Z,100395.02
2019-02-28T13:33:16.903Z,100389.09
2019-02-28T13:35:47.610Z,100381.53
2019-02-28T13:38:18.980Z,100377.61
2019-02-28T13:40:47.321Z,100382.45
2019-02-28T13:43:21.067Z,100371.99
2019-02-28T13:45:50.783Z,100365.26
2019-02-28T13:48:25.680Z,100366.64
2019-02-28T13:50:48.790Z,100370.01
2019-02-28T13:53:18.717Z,100367.77
2019-02-28T13:55:47.920Z,100353.08
2019-02-28T13:58:17.606Z,100353.08
2019-02-28T14:00:48.012Z,100340.95
2019-02-28T14:03:17.264Z,100384.50
2019-02-28T14:05:46.279Z,100392.95
2019-02-28T14:08:15.324Z,100387.53
2019-02-28T14:10:44.543Z,100351.70
2019-02-28T14:13:13.404Z,100363.20
2019-02-28T14:15:43.520Z,100355.27
2019-02-28T14:18:12.895Z,100349.71
2019-02-28T14:20:42.080Z,100353.42
2019-02-28T14:23:11.097Z,100362.81
2019-02-28T14:25:41.280Z,100343.23
2019-02-28T14:28:10.578Z,100361.25
2019-02-28T14:30:39.566Z,100371.38
2019-02-28T14:33:08.714Z,100359.13
2019-02-28T14:35:38.779Z,100358.31
2019-02-28T14:38:07.836Z,100379.92
2019-02-28T14:40:36.827Z,100368.00
2019-02-28T14:43:05.933Z,100371.48
2019-02-28T14:45:35.252Z,100356.75
2019-02-28T14:48:05.157Z,100355.42
2019-02-28T14:50:34.614Z,100361.97
2019-02-28T14:53:03.633Z,100360.57
2019-02-28T14:55:33.692Z,100378.33
2019-02-28T14:58:02.670Z,100359.22
2019-02-28T15:00:32.072Z,100374.63
2019-02-28T15:03:02.814Z,100376.20
2019-02-28T15:05:32.141Z,100379.06
2019-02-28T15:08:01.942Z,100382.59
2019-02-28T15:10:34.231Z,100366.29
2019-02-28T15:13:01.955Z,100375.05
2019-02-28T15:15:31.044Z,100374.69
2019-02-28T15:17:59.995Z,100398.80
2019-02-28T15:20:32.824Z,100401.30
2019-02-28T15:22:59.827Z,100386.04
2019-02-28T15:25:28.811Z,100368.80
2019-02-28T15:27:57.739Z,100387.94
2019-02-28T15:30:30.508Z,100392.25
2019-02-28T15:32:59.352Z,100373.47
2019-02-28T15:35:28.335Z,100363.06
2019-02-28T15:37:57.362Z,100374.02
2019-02-28T15:40:28.483Z,100373.48
2019-02-28T15:42:57.587Z,100359.69
2019-02-28T15:45:27.757Z,100369.88
2019-02-28T15:47:59.180Z,100365.11
2019-02-28T15:50:27.870Z,100370.37
2019-02-28T15:52:57.107Z,100374.32
2019-02-28T15:55:30.103Z,100373.34
2019-02-28T15:57:59.139Z,100367.46
2019-02-28T16:00:29.612Z,100375.78
2019-02-28T16:02:58.874Z,100375.27
2019-02-28T16:05:27.969Z,100374.62
2019-02-28T16:07:57.371Z,100394.78
2019-02-28T16:10:28.520Z,100396.28
2019-02-28T16:12:59.032Z,100404.81
2019-02-28T16:15:28.294Z,100403.61
2019-02-28T16:17:57.253Z,100408.17
2019-02-28T16:20:28.631Z,100405.05
2019-02-28T16:22:56.875Z,100434.48
2019-02-28T16:25:28.217Z,100419.52
2019-02-28T16:27:58.029Z,100433.33
2019-02-28T16:30:28.809Z,100440.75
2019-02-28T16:32:57.730Z,100450.20
2019-02-28T16:35:28.889Z,100452.05
2019-02-28T16:37:57.511Z,100460.00
2019-02-28T16:40:27.202Z,100464.64
2019-02-28T16:42:56.421Z,100488.45
2019-02-28T16:45:29.084Z,100469.05
2019-02-28T16:47:59.535Z,100498.32
2019-02-28T16:50:28.965Z,100482.05
2019-02-28T16:52:57.897Z,100496.17
2019-02-28T16:55:27.503Z,100507.06
2019-02-28T17:04:54.207Z,100534.65
2019-02-28T17:07:23.187Z,100522.22
2019-02-28T17:09:52.117Z,100520.72
2019-02-28T17:12:38.729Z,100503.44
2019-02-28T17:15:14.020Z,100525.13
2019-02-28T17:17:49.200Z,100545.87
2019-02-28T17:20:18.071Z,100528.78
2019-02-28T17:22:46.918Z,100537.30
2019-02-28T17:25:22.876Z,100532.33
2019-02-28T17:27:59.993Z,100529.47
2019-02-28T17:31:00.255Z,100547.48
2019-02-28T17:33:29.628Z,100529.07
2019-02-28T17:35:58.490Z,100534.26
2019-02-28T17:38:27.489Z,100546.06
2019-02-28T17:40:58.821Z,100535.91
2019-02-28T17:43:27.496Z,100512.63
2019-02-28T17:45:56.486Z,100551.75
2019-02-28T17:49:06.748Z,100549.78
2019-02-28T17:51:43.453Z,100558.70
2019-02-28T17:54:47.265Z,100568.03
2019-02-28T17:57:48.676Z,100559.02
2019-02-28T18:00:44.770Z,100570.92
2019-02-28T18:03:44.983Z,100570.97
2019-02-28T18:07:20.040Z,100573.33
2019-02-28T18:10:20.948Z,100570.55
2019-02-28T18:13:23.627Z,100562.89
2019-02-28T18:16:24.365Z,100567.62
2019-02-28T18:19:46.633Z,100568.98
2019-02-28T18:22:38.754Z,100569.50
2019-02-28T18:25:44.993Z,100567.23
2019-02-28T18:28:58.087Z,100572.41
2019-02-28T18:31:27.236Z,100572.50
2019-02-28T18:34:00.379Z,100576.95
2019-02-28T18:36:30.995Z,100575.92
2019-02-28T18:39:00.029Z,100579.64
2019-02-28T18:41:28.956Z,100573.02
2019-02-28T18:43:59.979Z,100577.38
2019-02-28T18:46:29.675Z,100566.72
2019-02-28T18:48:59.225Z,100567.45
2019-02-28T18:51:28.362Z,100558.44
2019-02-28T18:53:57.328Z,100550.06
2019-02-28T18:56:26.308Z,100556.88
2019-02-28T18:58:55.321Z,100562.06
2019-02-28T19:01:24.328Z,100552.84
2019-02-28T19:03:53.209Z,100549.84
2019-02-28T19:06:22.176Z,100528.45
2019-02-28T19:08:50.991Z,100561.63
2019-02-28T19:11:19.895Z,100557.37
2019-02-28T19:13:48.760Z,100554.36
2019-02-28T19:16:17.973Z,100553.14
2019-02-28T19:18:47.098Z,100553.81
2019-02-28T19:21:16.101Z,100547.11
2019-02-28T19:23:44.904Z,100560.44
2019-02-28T19:26:13.693Z,100560.23
2019-02-28T19:28:42.600Z,100562.20
2019-02-28T19:31:11.572Z,100563.83
2019-02-28T19:33:40.582Z,100563.83
2019-02-28T19:36:09.542Z,100566.91
2019-02-28T19:38:38.471Z,100566.29
2019-02-28T19:41:07.534Z,100564.33
2019-02-28T19:43:36.359Z,100568.98
2019-02-28T19:46:05.504Z,100559.06
2019-02-28T19:48:36.980Z,100557.50
2019-02-28T19:51:05.982Z,100558.31
2019-02-28T19:53:35.729Z,100551.70
2019-02-28T19:56:04.761Z,100548.38
2019-02-28T19:58:33.613Z,100548.20
2019-02-28T20:01:02.643Z,100542.08
2019-02-28T20:03:31.645Z,100535.67
2019-02-28T20:06:00.681Z,100534.54
2019-02-28T20:08:29.648Z,100536.29
2019-02-28T20:10:58.671Z,100534.64
2019-02-28T20:13:27.611Z,100535.36
2019-02-28T20:15:56.645Z,100530.48
2019-02-28T20:18:25.550Z,100526.54
2019-02-28T20:20:54.476Z,100523.75
2019-02-28T20:23:24.960Z,100516.60
2019-02-28T20:25:54.022Z,100510.83
2019-02-28T20:28:22.901Z,100514.13
2019-02-28T20:30:51.925Z,100508.73
2019-02-28T20:33:20.857Z,100510.08
2019-02-28T20:35:49.837Z,100502.33
2019-02-28T20:38:18.816Z,100496.96
2019-02-28T20:40:47.732Z,100505.66
2019-02-28T20:43:16.694Z,100494.62
2019-02-28T20:45:45.718Z,100500.91
2019-02-28T20:48:14.902Z,100499.67
2019-02-28T20:50:43.918Z,100491.95
2019-02-28T20:53:12.874Z,100484.19
2019-02-28T20:55:41.863Z,100489.77
2019-02-28T20:58:10.776Z,100475.19
2019-02-28T21:00:39.826Z,100481.27
2019-02-28T21:03:08.851Z,100483.86
2019-02-28T21:05:37.767Z,100475.59
2019-02-28T21:08:06.796Z,100474.03
2019-02-28T21:10:35.772Z,100469.51
2019-02-28T21:13:05.032Z,100465.25
2019-02-28T21:15:33.941Z,100472.97
2019-02-28T21:18:02.862Z,100463.06
2019-02-28T21:20:31.799Z,100463.83
2019-02-28T21:23:00.794Z,100453.72
2019-02-28T21:25:29.613Z,100464.45
2019-02-28T21:27:58.538Z,100448.56
2019-02-28T21:30:27.599Z,100453.38
2019-02-28T21:32:56.456Z,100446.47
2019-02-28T21:35:27.157Z,100447.05
2019-02-28T21:37:56.090Z,100447.47
2019-02-28T21:40:25.453Z,100448.19
2019-02-28T21:42:54.443Z,100439.39
2019-02-28T21:45:23.436Z,100453.38
2019-02-28T21:47:53.327Z,100455.89
2019-02-28T21:50:22.378Z,100452.66
2019-02-28T21:52:51.356Z,100438.78
2019-02-28T21:55:20.372Z,100441.77
2019-02-28T21:57:49.247Z,100441.52
2019-02-28T22:00:21.440Z,100435.95
2019-02-28T22:02:50.366Z,100437.23
2019-02-28T22:05:19.438Z,100434.27
2019-02-28T22:07:48.549Z,100427.13
2019-02-28T22:10:17.614Z,100390.00
2019-02-28T22:12:46.731Z,100416.64
2019-02-28T22:15:16.842Z,100412.63
2019-02-28T22:17:46.005Z,100412.83
2019-02-28T22:20:15.457Z,100414.58
2019-02-28T22:22:44.559Z,100417.60
2019-02-28T22:25:13.863Z,100406.56
2019-02-28T22:27:42.886Z,100405.20
2019-02-28T22:30:33.795Z,100406.15
2019-02-28T22:33:04.906Z,100395.11
2019-02-28T22:35:43.377Z,100398.62
2019-02-28T22:38:12.287Z,100385.83
2019-02-28T22:40:41.397Z,100380.26
2019-02-28T22:43:10.267Z,100379.33
2019-02-28T22:45:39.267Z,100375.84
2019-02-28T22:48:08.148Z,100370.30
2019-02-28T22:50:36.960Z,100370.89
2019-02-28T22:53:05.910Z,100367.50
2019-02-28T22:55:34.879Z,100368.42
2019-02-28T22:58:08.654Z,100361.41
2019-02-28T23:00:52.338Z,100362.33
2019-02-28T23:03:21.370Z,100358.44
2019-02-28T23:05:50.316Z,100358.00
2019-02-28T23:08:19.303Z,100350.89
2019-02-28T23:10:48.234Z,100342.00
2019-02-28T23:13:17.109Z,100351.48
2019-02-28T23:15:46.124Z,100357.65
2019-02-28T23:18:15.107Z,100354.60
2019-02-28T23:20:44.607Z,100341.45
2019-02-28T23:23:13.569Z,100345.88
2019-02-28T23:25:42.551Z,100338.70
2019-02-28T23:28:13.971Z,100347.58
2019-02-28T23:31:16.644Z,100339.91
2019-02-28T23:33:45.587Z,100330.70
2019-02-28T23:36:21.690Z,100317.78
2019-02-28T23:38:50.562Z,100322.37
2019-02-28T23:41:19.452Z,100332.16
2019-02-28T23:43:48.359Z,100322.69
2019-02-28T23:46:17.391Z,100311.77
2019-02-28T23:48:46.387Z,100314.86
2019-02-28T23:51:15.234Z,100313.90
2019-02-28T23:53:44.057Z,100314.62
2019-02-28T23:56:12.972Z,100310.29
2019-02-28T23:58:41.966Z,100311.77
